TimeEDT,TemperatureF,Dew PointF,Humidity,Sea Level PressureIn,VisibilityMPH,Wind Direction,Wind SpeedMPH,Gust SpeedMPH,PrecipitationIn,Events,Conditions,WindDirDegrees,DateUTC
12:54 AM,51.1,37.9,61,30.18,-9999.0,North,-9999.0,-,N/A,,Unknown,0,2013-05-06 04:54:00
1:54 AM,48.0,37.0,66,30.17,-9999.0,North,-9999.0,-,N/A,,Unknown,0,2013-05-06 05:54:00
2:54 AM,44.1,36.0,73,30.18,-9999.0,North,-9999.0,-,N/A,,Unknown,0,2013-05-06 06:54:00
3:54 AM,43.0,37.0,80,30.18,-9999.0,North,-9999.0,-,N/A,,Unknown,0,2013-05-06 07:54:00
4:54 AM,41.0,36.0,82,30.19,-9999.0,North,-9999.0,-,N/A,,Unknown,0,2013-05-06 08:54:00
5:54 AM,39.9,34.0,79,30.21,-9999.0,North,-9999.0,-,N/A,,Unknown,0,2013-05-06 09:54:00
6:54 AM,42.1,36.0,79,30.22,-9999.0,North,-9999.0,-,N/A,,Unknown,0,2013-05-06 10:54:00
7:54 AM,46.9,37.0,68,30.21,-9999.0,North,-9999.0,-,N/A,,Unknown,0,2013-05-06 11:54:00
8:54 AM,55.0,39.0,55,30.20,-9999.0,North,-9999.0,-,N/A,,Unknown,0,2013-05-06 12:54:00
9:54 AM,60.1,37.9,44,30.18,-9999.0,North,-9999.0,-,N/A,,Unknown,0,2013-05-06 13:54:00
10:54 AM,66.0,36.0,33,30.17,-9999.0,North,-9999.0,-,N/A,,Unknown,0,2013-05-06 14:54:00
11:54 AM,71.1,30.9,23,30.14,-9999.0,North,-9999.0,-,N/A,,Unknown,0,2013-05-06 15:54:00
12:54 PM,73.9,30.0,20,30.12,-9999.0,North,-9999.0,-,N/A,,Unknown,0,2013-05-06 16:54:00
1:54 PM,75.9,30.9,19,30.10,-9999.0,North,-9999.0,-,N/A,,Unknown,0,2013-05-06 17:54:00
2:54 PM,75.9,28.9,18,30.08,-9999.0,North,-9999.0,-,N/A,,Unknown,0,2013-05-06 18:54:00
3:54 PM,77.0,30.0,18,30.06,-9999.0,North,-9999.0,-,N/A,,Unknown,0,2013-05-06 19:54:00
4:54 PM,77.0,27.0,16,30.04,-9999.0,North,-9999.0,-,N/A,,Unknown,0,2013-05-06 20:54:00
5:54 PM,75.9,21.9,13,30.04,-9999.0,North,-9999.0,-,N/A,,Unknown,0,2013-05-06 21:54:00
6:54 PM,75.0,18.0,12,30.03,-9999.0,North,-9999.0,-,N/A,,Unknown,0,2013-05-06 22:54:00
7:54 PM,71.1,19.9,14,30.04,-9999.0,North,-9999.0,-,N/A,,Unknown,0,2013-05-06 23:54:00
8:54 PM,63.0,32.0,31,30.06,-9999.0,North,-9999.0,-,N/A,,Unknown,0,2013-05-07 00:54:00
9:54 PM,59.0,32.0,36,30.08,-9999.0,North,-9999.0,-,N/A,,Unknown,0,2013-05-07 01:54:00
10:54 PM,61.0,30.0,31,30.08,-9999.0,North,-9999.0,-,N/A,,Unknown,0,2013-05-07 02:54:00
11:54 PM,55.0,35.1,47,30.09,-9999.0,North,-9999.0,-,N/A,,Unknown,0,2013-05-07 03:54:00